Time;durP1;ratioP1;P1;durP2;ratioP2;P2;SDS_P1;SDS_P2;PMS_P1;PMS_P2;Temp;Humidity;BMP_temperature;BMP_pressure;BME280_temperature;BME280_humidity;BME280_pressure;Samples;Min_cycle;Max_cycle;Signal;HPM_P1;HPM_P2
2021/04/30 05:27:13;;;;;;;1999.90;207.27;;;7.60;99.90;;;;;;6117989;23;20377;31
2021/04/30 05:45:35;;;;;;;738.85;85.45;;;7.90;99.90;;;;;;836916;23;20942;-92
2021/04/30 05:48:03;;;;;;;1137.15;100.13;;;8.00;99.90;;;;;;4941669;29;20442;-95
2021/04/30 05:53:52;;;;;;;472.15;78.82;;;8.20;99.90;;;;;;5832836;23;20425;-94
2021/04/30 06:41:25;;;;;;;38.55;29.15;;;8.60;99.90;;;;;;6086659;23;20371;31
2021/04/30 06:43:53;;;;;;;24.75;20.00;;;9.10;99.90;;;;;;4923063;29;20431;-96
2021/04/30 06:46:28;;;;;;;21.50;15.10;;;11.30;99.90;;;;;;4946539;29;20431;-96
2021/04/30 07:07:13;;;;;;;18.88;12.60;;;14.20;99.90;;;;;;5435099;23;20465;-96
2021/04/30 07:10:05;;;;;;;18.17;14.93;;;13.50;99.90;;;;;;5630007;23;21027;-95
2021/04/30 07:12:38;;;;;;;19.95;15.73;;;12.40;99.90;;;;;;5037617;28;20461;-95
2021/04/30 07:35:26;;;;;;;15.80;12.63;;;14.50;99.90;;;;;;6073826;23;20397;-95
2021/04/30 09:00:53;;;;;;;10.00;7.78;;;16.30;99.30;;;;;;5355413;23;20392;-96
2021/04/30 09:17:01;;;;;;;12.68;8.70;;;15.60;99.90;;;;;;5035909;28;20399;-93
2021/04/30 09:19:40;;;;;;;10.25;8.23;;;15.50;99.90;;;;;;5018869;28;20851;-95
2021/04/30 09:22:08;;;;;;;10.05;8.07;;;15.60;99.70;;;;;;5018225;28;20427;-95
2021/04/30 09:28:22;;;;;;;11.38;7.65;;;15.00;99.90;;;;;;5035160;28;20429;-94
2021/04/30 09:30:51;;;;;;;11.32;8.13;;;15.00;99.90;;;;;;5017496;28;20429;-95
2021/04/30 09:33:18;;;;;;;7.93;7.00;;;15.90;99.90;;;;;;5016972;28;20433;-95
2021/04/30 09:35:46;;;;;;;9.18;7.00;;;17.20;98.60;;;;;;5017395;28;20485;-95
2021/04/30 09:38:17;;;;;;;10.00;6.80;;;17.90;95.50;;;;;;5018654;28;20502;-94
2021/04/30 09:40:46;;;;;;;8.90;7.03;;;17.90;95.40;;;;;;5034620;28;20425;-95
2021/04/30 09:43:15;;;;;;;8.98;7.55;;;17.30;94.30;;;;;;5018355;28;20431;-95
2021/04/30 09:45:47;;;;;;;12.77;8.18;;;16.20;96.10;;;;;;5019135;28;20492;-95
2021/04/30 09:48:15;;;;;;;9.27;7.43;;;16.10;99.90;;;;;;5017558;28;20493;-94
2021/04/30 09:50:44;;;;;;;10.45;7.30;;;16.60;97.20;;;;;;5019233;28;20823;-95
2021/04/30 09:53:13;;;;;;;9.70;7.35;;;16.70;96.10;;;;;;5017839;28;20426;-95
2021/04/30 09:55:41;;;;;;;11.02;8.23;;;16.40;96.00;;;;;;5018312;28;20514;-95
2021/04/30 09:58:16;;;;;;;11.98;8.43;;;15.90;96.20;;;;;;5016714;28;20423;-96
2021/04/30 10:00:49;;;;;;;16.10;9.25;;;15.70;97.20;;;;;;5017749;28;20423;-96
2021/04/30 10:03:18;;;;;;;12.15;9.02;;;15.20;97.50;;;;;;5018941;28;20427;-95
2021/04/30 10:06:17;;;;;;;12.00;9.07;;;14.70;99.00;;;;;;5028258;28;20411;-95
2021/04/30 10:09:07;;;;;;;13.30;10.02;;;14.80;99.20;;;;;;5038595;28;20426;-95
2021/04/30 10:11:34;;;;;;;13.40;9.60;;;15.00;99.90;;;;;;5013712;28;20423;-94
2021/04/30 10:14:02;;;;;;;15.67;10.30;;;15.30;99.90;;;;;;5018286;28;20427;-93
2021/04/30 10:20:15;;;;;;;16.00;11.43;;;15.00;99.40;;;;;;5034595;28;21105;-94
2021/04/30 10:22:44;;;;;;;16.83;11.07;;;15.00;98.00;;;;;;5016417;28;20427;-95
2021/04/30 10:27:51;;;;;;;14.43;9.80;;;15.50;98.30;;;;;;5030039;23;20420;-95
2021/04/30 10:30:39;;;;;;;12.85;9.10;;;16.00;98.70;;;;;;4998763;28;20463;-95
2021/04/30 10:33:51;;;;;;;16.83;9.95;;;15.90;97.80;;;;;;4998173;28;20432;-93
2021/04/30 10:36:38;;;;;;;10.90;8.17;;;15.50;97.40;;;;;;4901660;29;20429;-94
2021/04/30 10:39:05;;;;;;;10.32;7.75;;;15.60;96.00;;;;;;4901248;29;20475;-95
2021/04/30 10:41:37;;;;;;;15.20;9.33;;;15.30;96.80;;;;;;4901128;29;20445;-95
2021/04/30 10:44:15;;;;;;;12.60;8.32;;;16.10;97.40;;;;;;4902116;29;20444;-94
2021/04/30 10:46:47;;;;;;;10.50;7.25;;;16.70;95.90;;;;;;4907255;29;20558;-94
2021/04/30 10:49:23;;;;;;;10.17;6.70;;;17.20;94.70;;;;;;4905968;29;20544;-94
2021/04/30 10:52:06;;;;;;;10.17;7.10;;;17.20;94.00;;;;;;4912253;29;20464;-94
2021/04/30 10:55:17;;;;;;;10.95;7.30;;;16.90;94.80;;;;;;4912605;29;21040;-94
2021/04/30 10:57:51;;;;;;;6.75;5.50;;;17.30;96.50;;;;;;4890583;29;20962;-94
2021/04/30 11:00:24;;;;;;;9.43;6.22;;;17.10;93.90;;;;;;4907164;29;20459;-96
2021/04/30 11:07:29;;;;;;;7.30;5.38;;;16.50;95.30;;;;;;4871133;29;20561;-96
2021/04/30 11:14:23;;;;;;;6.93;4.68;;;16.00;95.70;;;;;;4940297;29;20446;-95
2021/04/30 11:16:52;;;;;;;6.25;4.43;;;17.20;96.60;;;;;;4939105;29;20455;-95
2021/04/30 11:19:22;;;;;;;7.57;4.28;;;17.90;93.30;;;;;;4923413;29;20467;-95
2021/04/30 11:21:52;;;;;;;6.33;4.60;;;17.70;92.40;;;;;;4919614;29;20940;-96
2021/04/30 11:24:36;;;;;;;7.15;4.65;;;17.40;94.40;;;;;;4904779;29;20471;-96
2021/04/30 11:27:13;;;;;;;6.28;4.10;;;17.50;94.10;;;;;;4904424;29;20504;-95
2021/04/30 11:29:45;;;;;;;5.17;4.13;;;17.10;94.70;;;;;;4920829;29;20532;-95
2021/04/30 11:32:23;;;;;;;5.97;4.30;;;16.70;93.50;;;;;;4905113;29;20430;-94
2021/04/30 11:34:55;;;;;;;5.13;4.07;;;17.10;94.40;;;;;;4919561;29;20447;-90
2021/04/30 11:41:10;;;;;;;7.65;4.50;;;17.70;95.00;;;;;;4920978;29;20445;-93
2021/04/30 11:43:40;;;;;;;7.18;4.20;;;18.20;92.00;;;;;;4991386;28;20413;-95
2021/04/30 11:46:19;;;;;;;5.95;4.13;;;18.10;88.70;;;;;;4993989;28;20402;-95
2021/04/30 11:48:47;;;;;;;6.00;4.47;;;18.10;91.80;;;;;;5022218;23;21322;-92
2021/04/30 11:51:17;;;;;;;5.85;4.47;;;18.60;91.00;;;;;;4986172;28;20418;-95
2021/04/30 11:53:56;;;;;;;7.22;4.20;;;18.80;88.60;;;;;;4969125;28;20430;-93
2021/04/30 11:56:31;;;;;;;5.97;3.95;;;18.30;88.20;;;;;;4980979;28;20418;-94
2021/04/30 11:58:58;;;;;;;5.80;4.35;;;18.30;93.60;;;;;;4996941;28;20431;-93
2021/04/30 12:01:37;;;;;;;5.80;4.60;;;18.10;90.10;;;;;;4985201;28;20434;-93
2021/04/30 12:04:07;;;;;;;6.28;3.67;;;18.40;90.70;;;;;;4981718;28;20489;-93
2021/04/30 12:06:41;;;;;;;5.55;4.13;;;19.10;91.50;;;;;;4986310;28;20433;-96
2021/04/30 12:09:29;;;;;;;4.88;4.00;;;19.80;88.90;;;;;;4985304;28;20482;-95
2021/04/30 12:12:19;;;;;;;7.93;4.28;;;19.90;84.90;;;;;;4996943;28;20433;-92
2021/04/30 12:14:57;;;;;;;5.28;3.97;;;19.80;83.30;;;;;;4984064;28;20431;-90
2021/04/30 12:17:33;;;;;;;5.18;4.07;;;20.20;86.20;;;;;;4971836;28;20424;-95
2021/04/30 12:27:47;;;;;;;7.78;4.88;;;19.60;83.40;;;;;;5171076;23;20443;-96
2021/04/30 17:07:21;;;;;;;2.50;1.10;;;15.60;92.90;;;;;;4935906;29;20408;-96
2021/04/30 17:10:05;;;;;;;1.02;0.93;;;15.40;94.60;;;;;;4934079;29;20468;-96
2021/04/30 17:13:00;;;;;;;1.60;0.80;;;15.30;94.90;;;;;;4915287;29;20571;-95
2021/04/30 17:23:05;;;;;;;1.40;0.80;;;15.00;97.20;;;;;;4849693;29;20407;-95
2021/04/30 17:25:33;;;;;;;1.10;1.00;;;14.90;98.40;;;;;;4829639;29;20507;-94
2021/04/30 17:28:08;;;;;;;4.28;0.90;;;14.80;99.00;;;;;;4830130;29;20524;-96
2021/04/30 17:34:26;;;;;;;3.50;0.90;;;14.70;99.90;;;;;;4938877;29;20498;-96
2021/04/30 17:37:02;;;;;;;2.58;1.00;;;14.40;99.90;;;;;;4930064;29;20936;-94
2021/04/30 17:39:30;;;;;;;2.47;0.82;;;14.20;99.90;;;;;;4932901;29;20429;-95
2021/04/30 17:42:12;;;;;;;3.10;0.90;;;14.10;99.90;;;;;;4912491;29;20418;-96
2021/04/30 17:57:09;;;;;;;2.03;1.40;;;14.30;99.90;;;;;;5047482;23;20436;-95
2021/04/30 20:13:19;;;;;;;5.20;3.22;;;11.40;99.90;;;;;;5169223;23;20433;-95
2021/04/30 20:15:53;;;;;;;4.47;3.17;;;11.50;99.90;;;;;;4908197;29;20526;-94
2021/04/30 20:18:24;;;;;;;7.28;3.45;;;11.50;99.90;;;;;;4890264;29;20466;-95
2021/04/30 20:21:54;;;;;;;6.65;3.40;;;11.50;99.90;;;;;;4904784;29;20429;-95
2021/04/30 20:24:39;;;;;;;6.45;3.53;;;11.40;99.90;;;;;;4843550;29;20444;-95
2021/04/30 20:27:15;;;;;;;4.38;3.05;;;11.20;99.90;;;;;;4844841;29;20506;-96
2021/04/30 20:29:43;;;;;;;4.95;2.67;;;11.20;99.90;;;;;;4844813;29;20539;-95
2021/04/30 20:32:37;;;;;;;6.72;2.63;;;11.10;99.90;;;;;;4847170;29;20466;-96
